Time;durP1;ratioP1;P1;durP2;ratioP2;P2;SDS_P1;SDS_P2;PMS_P1;PMS_P2;Temp;Humidity;BMP_temperature;BMP_pressure;BME280_temperature;BME280_humidity;BME280_pressure;Samples;Min_cycle;Max_cycle;Signal;HPM_P1;HPM_P2
2022/12/30 00:01:46;;;;;;;17.52;3.83;;;;;;;10.91;80.81;100795.91;5094313;28;20048;-63
2022/12/30 00:04:13;;;;;;;14.30;3.58;;;;;;;10.82;79.34;100787.59;5095313;28;20063;-63
2022/12/30 00:06:41;;;;;;;23.42;4.50;;;;;;;10.77;79.39;100784.97;5093242;28;20048;-64
2022/12/30 00:09:24;;;;;;;17.90;4.15;;;;;;;10.74;79.99;100780.06;5094477;28;20083;-63
2022/12/30 00:11:52;;;;;;;21.45;4.35;;;;;;;10.93;79.99;100766.09;5094688;28;20048;-64
2022/12/30 00:34:05;;;;;;;22.92;7.57;;;;;;;10.48;82.56;100762.50;5084009;28;20051;-63
2022/12/30 00:36:32;;;;;;;21.92;4.60;;;;;;;10.09;81.17;100760.38;5075867;28;20037;-63
2022/12/30 00:39:00;;;;;;;32.67;7.50;;;;;;;9.98;82.18;100758.97;5094217;28;20059;-64
2022/12/30 00:44:13;;;;;;;18.42;4.03;;;;;;;10.17;82.40;100756.91;5098719;28;20048;-63
2022/12/30 00:46:40;;;;;;;17.25;4.32;;;;;;;9.66;80.61;100752.78;5098458;28;20040;-63
2022/12/30 00:57:25;;;;;;;17.75;3.80;;;;;;;9.99;81.42;100759.75;5083212;28;20059;-63
2022/12/30 00:59:53;;;;;;;14.57;3.67;;;;;;;9.81;80.77;100752.47;5096849;28;20056;-64
2022/12/30 01:02:20;;;;;;;19.42;4.00;;;;;;;10.16;84.13;100751.72;5098209;28;20040;-64
2022/12/30 01:04:48;;;;;;;20.15;3.70;;;;;;;9.56;82.70;100747.47;5098620;28;20051;-63
2022/12/30 01:07:15;;;;;;;17.63;3.10;;;;;;;10.15;83.93;100747.31;5098021;28;20507;-63
2022/12/30 01:09:42;;;;;;;20.55;4.30;;;;;;;9.93;81.80;100747.25;5097163;28;20052;-64
2022/12/30 01:12:11;;;;;;;14.45;3.60;;;;;;;10.25;82.38;100741.63;5079547;28;20051;-64
2022/12/30 01:14:39;;;;;;;20.92;3.60;;;;;;;9.74;79.53;100741.88;5097233;28;20048;-64
2022/12/30 01:17:08;;;;;;;17.58;3.85;;;;;;;9.61;81.10;100733.63;5097052;28;20050;-64
2022/12/30 01:19:36;;;;;;;17.10;3.67;;;;;;;9.80;83.12;100737.06;5080270;28;20052;-64
2022/12/30 01:22:05;;;;;;;10.63;3.13;;;;;;;10.04;83.37;100735.69;5097586;28;20293;-64
2022/12/30 01:24:32;;;;;;;16.95;3.83;;;;;;;9.49;80.05;100725.06;5097959;28;20415;-64
2022/12/30 01:26:59;;;;;;;19.23;3.85;;;;;;;9.86;82.84;100722.91;5062848;28;20368;-64
2022/12/30 01:29:29;;;;;;;12.73;3.00;;;;;;;9.98;82.19;100727.88;5097300;28;20043;-64
2022/12/30 01:31:57;;;;;;;17.98;3.25;;;;;;;9.77;81.41;100722.00;5079529;28;20056;-63
2022/12/30 01:34:25;;;;;;;19.73;3.35;;;;;;;9.13;80.78;100712.03;5079208;28;20071;-63
2022/12/30 01:36:53;;;;;;;16.95;4.07;;;;;;;9.60;82.93;100718.25;5097518;28;20053;-63
2022/12/30 01:39:20;;;;;;;19.25;3.17;;;;;;;9.30;81.85;100722.44;5097082;28;20051;-64
2022/12/30 01:41:48;;;;;;;15.45;3.58;;;;;;;9.17;82.07;100727.94;5097209;28;20651;-64
2022/12/30 01:44:49;;;;;;;26.05;4.97;;;;;;;9.15;82.51;100725.50;5097677;28;20051;-63
2022/12/30 01:47:41;;;;;;;22.88;4.20;;;;;;;9.15;82.84;100736.47;5095927;28;20059;-64
2022/12/30 01:50:11;;;;;;;17.90;3.58;;;;;;;9.27;84.43;100727.72;5096567;28;20436;-64
2022/12/30 01:53:20;;;;;;;20.23;3.53;;;;;;;9.34;84.68;100717.97;5097355;28;20044;-64
2022/12/30 01:55:57;;;;;;;23.57;4.63;;;;;;;9.36;84.16;100714.91;5052596;28;20514;-64
2022/12/30 01:58:34;;;;;;;21.02;3.83;;;;;;;9.24;84.80;100712.66;5097620;28;20076;-64
2022/12/30 02:01:06;;;;;;;18.50;3.97;;;;;;;9.41;87.47;100715.63;5059079;28;20040;-64
2022/12/30 02:03:44;;;;;;;21.10;4.40;;;;;;;9.62;87.14;100714.09;5097584;28;20059;-65
2022/12/30 02:06:13;;;;;;;19.55;3.90;;;;;;;10.30;86.30;100705.69;5064364;28;20044;-67
2022/12/30 02:08:40;;;;;;;14.18;3.50;;;;;;;9.98;83.24;100708.63;5062781;28;20052;-66
2022/12/30 02:11:08;;;;;;;19.95;3.90;;;;;;;9.90;81.67;100717.59;5078683;28;20048;-63
2022/12/30 02:13:35;;;;;;;17.55;3.95;;;;;;;9.46;84.39;100709.19;5097162;28;20052;-63
2022/12/30 02:16:21;;;;;;;21.23;3.95;;;;;;;9.39;83.01;100719.78;5094409;28;20044;-64
2022/12/30 02:19:01;;;;;;;20.55;4.35;;;;;;;9.24;85.44;100714.59;5097131;28;20048;-64
2022/12/30 02:21:45;;;;;;;22.48;5.68;;;;;;;9.03;84.56;100719.66;5096191;28;20064;-63
2022/12/30 02:24:46;;;;;;;19.52;4.43;;;;;;;9.18;85.42;100707.56;5096967;28;20052;-64
2022/12/30 02:27:39;;;;;;;16.95;3.80;;;;;;;9.36;88.20;100709.41;5094087;28;20111;-63
2022/12/30 02:30:12;;;;;;;18.33;4.68;;;;;;;8.81;84.74;100706.59;5067692;28;20058;-63
2022/12/30 02:32:46;;;;;;;18.08;4.18;;;;;;;8.63;86.42;100707.44;5096531;28;20052;-64
2022/12/30 02:35:32;;;;;;;20.48;4.95;;;;;;;8.83;86.02;100704.38;5096523;28;20401;-64
2022/12/30 02:38:21;;;;;;;24.08;4.28;;;;;;;8.42;87.12;100706.16;5078477;28;20055;-63
2022/12/30 02:46:34;;;;;;;23.30;5.60;;;;;;;8.83;88.39;100696.13;5079659;28;20087;-64
2022/12/30 02:49:01;;;;;;;24.60;5.93;;;;;;;8.59;87.29;100692.72;5091761;28;20143;-64
2022/12/30 02:54:15;;;;;;;21.98;5.07;;;;;;;8.76;89.30;100692.97;5081119;28;20055;-63
2022/12/30 02:56:50;;;;;;;21.63;5.53;;;;;;;8.62;88.94;100685.78;5073920;28;20052;-63
2022/12/30 03:05:35;;;;;;;27.52;6.78;;;;;;;9.05;90.89;100665.22;5080285;28;20483;-64
2022/12/30 03:08:34;;;;;;;21.48;5.50;;;;;;;8.69;91.39;100664.25;5095656;28;20055;-64
2022/12/30 03:11:16;;;;;;;23.63;5.20;;;;;;;8.87;90.06;100658.69;5089158;28;20541;-64
2022/12/30 03:14:04;;;;;;;26.58;5.75;;;;;;;8.43;89.26;100660.31;5074311;28;20052;-64
2022/12/30 03:16:34;;;;;;;23.25;5.40;;;;;;;8.44;90.32;100662.75;5092267;28;20056;-64
2022/12/30 03:19:05;;;;;;;;;;;;;;;8.62;90.21;100652.84;5075137;28;20466;-64
2022/12/30 03:21:36;;;;;;;21.10;4.88;;;;;;;8.89;91.34;100655.66;5110431;28;19927;-64
2022/12/30 03:27:03;;;;;;;23.90;6.60;;;;;;;8.93;91.76;100634.69;5079793;28;20411;-63
2022/12/30 03:29:35;;;;;;;22.67;5.70;;;;;;;8.63;89.51;100641.56;5078267;28;20459;-63
2022/12/30 03:32:04;;;;;;;22.40;5.82;;;;;;;9.07;93.89;100643.75;5072674;28;20044;-63
2022/12/30 03:34:32;;;;;;;22.60;5.70;;;;;;;9.26;91.97;100643.66;5095326;28;20070;-64
2022/12/30 03:37:22;;;;;;;18.17;5.75;;;;;;;8.93;89.69;100645.66;5076413;28;20052;-64
2022/12/30 03:39:54;;;;;;;;;;;;;;;9.21;91.27;100641.81;5073681;28;20067;-64
2022/12/30 03:42:22;;;;;;;16.90;4.65;;;;;;;9.49;91.74;100642.59;5069626;28;20001;-64
2022/12/30 03:44:51;;;;;;;19.23;4.90;;;;;;;9.17;89.27;100638.03;5094484;28;20063;-64
2022/12/30 03:47:19;;;;;;;14.48;4.75;;;;;;;9.12;89.03;100629.91;5074625;28;20052;-64
2022/12/30 03:49:46;;;;;;;19.35;5.45;;;;;;;9.16;89.39;100632.84;5092175;28;20051;-63
2022/12/30 03:52:15;;;;;;;16.45;5.25;;;;;;;9.08;89.48;100618.69;5093529;28;20044;-63
2022/12/30 03:54:42;;;;;;;15.77;4.85;;;;;;;9.21;89.71;100621.75;5059965;28;20052;-63
2022/12/30 03:57:10;;;;;;;22.92;5.93;;;;;;;8.85;89.37;100608.75;5076069;28;20044;-63
2022/12/30 03:59:37;;;;;;;17.95;6.00;;;;;;;9.45;92.00;100605.88;5094934;28;20055;-63
2022/12/30 04:02:04;;;;;;;23.25;6.07;;;;;;;8.98;89.91;100599.69;5094706;28;20051;-64
2022/12/30 04:04:32;;;;;;;17.85;5.93;;;;;;;9.26;93.37;100608.72;5094198;28;20388;-64
2022/12/30 04:06:59;;;;;;;19.50;6.10;;;;;;;9.30;91.25;100596.00;5076566;28;20391;-65
2022/12/30 04:09:27;;;;;;;22.50;6.90;;;;;;;9.16;90.36;100599.88;5094784;28;20052;-64
2022/12/30 04:11:54;;;;;;;21.13;6.10;;;;;;;8.94;89.89;100597.88;5093371;28;20063;-63
2022/12/30 04:14:21;;;;;;;20.02;6.05;;;;;;;9.03;90.46;100591.34;5076377;28;20055;-62
2022/12/30 04:16:49;;;;;;;20.25;5.80;;;;;;;8.70;92.72;100592.56;5037685;28;20063;-63
2022/12/30 04:19:16;;;;;;;19.98;5.38;;;;;;;9.03;94.64;100582.31;5093696;28;20467;-63
2022/12/30 04:21:43;;;;;;;24.45;5.88;;;;;;;9.03;92.50;100588.59;5076733;28;20062;-62
2022/12/30 04:24:13;;;;;;;16.10;5.65;;;;;;;8.87;93.73;100580.97;5060115;28;20052;-62
2022/12/30 04:26:41;;;;;;;15.30;5.93;;;;;;;8.59;92.45;100585.66;5094424;28;20052;-63
2022/12/30 04:29:10;;;;;;;18.38;6.25;;;;;;;9.34;96.53;100587.97;5093895;28;20044;-62
2022/12/30 04:31:37;;;;;;;16.17;5.88;;;;;;;9.03;91.89;100579.56;5094340;28;20411;-63
2022/12/30 04:34:04;;;;;;;14.52;5.40;;;;;;;8.59;93.48;100580.16;5094608;28;20055;-62
2022/12/30 04:36:34;;;;;;;20.30;6.43;;;;;;;8.81;95.32;100577.53;5075740;28;20139;-62
2022/12/30 04:39:03;;;;;;;16.20;6.20;;;;;;;8.95;94.99;100575.59;5076446;28;20040;-63
2022/12/30 04:41:30;;;;;;;13.82;6.03;;;;;;;9.15;93.81;100563.38;5075577;28;20044;-63
2022/12/30 04:43:58;;;;;;;20.95;6.05;;;;;;;9.31;94.37;100567.38;5076368;28;20063;-63
2022/12/30 04:46:25;;;;;;;20.48;6.03;;;;;;;9.17;92.20;100554.81;5075801;28;20052;-63
2022/12/30 04:48:52;;;;;;;19.80;6.60;;;;;;;8.70;92.63;100556.84;5075455;28;20115;-63
2022/12/30 04:51:22;;;;;;;22.23;6.47;;;;;;;8.98;95.14;100560.41;5076622;28;20052;-70
2022/12/30 04:53:50;;;;;;;14.88;6.10;;;;;;;9.00;94.35;100556.25;5094076;28;20052;-70
2022/12/30 04:56:20;;;;;;;19.50;6.43;;;;;;;8.68;94.32;100548.09;5075275;28;20059;-70
2022/12/30 04:58:53;;;;;;;16.33;6.00;;;;;;;8.62;94.95;100535.63;5059577;28;20533;-70
2022/12/30 05:01:20;;;;;;;16.67;5.95;;;;;;;8.75;95.09;100517.53;5093278;28;20044;-70
2022/12/30 05:03:48;;;;;;;22.08;6.43;;;;;;;8.42;95.14;100529.72;5074695;28;20052;-70
2022/12/30 05:06:15;;;;;;;19.63;5.43;;;;;;;8.78;97.67;100522.38;5075468;28;20040;-70
2022/12/30 05:08:43;;;;;;;23.75;6.05;;;;;;;9.08;96.27;100525.28;5077291;28;20079;-62
2022/12/30 05:11:10;;;;;;;23.85;6.65;;;;;;;8.93;94.94;100520.13;5078964;28;20501;-63
2022/12/30 05:13:37;;;;;;;16.90;5.82;;;;;;;8.75;94.09;100506.53;5097304;28;20043;-64
2022/12/30 05:16:12;;;;;;;19.15;5.72;;;;;;;8.79;94.80;100491.06;5097251;28;20032;-63
2022/12/30 05:18:39;;;;;;;22.98;5.15;;;;;;;8.70;94.36;100479.19;5079476;28;20055;-63
2022/12/30 05:21:07;;;;;;;17.20;4.45;;;;;;;8.98;95.92;100478.00;5097350;28;20055;-63
2022/12/30 05:26:21;;;;;;;28.42;6.05;;;;;;;8.53;96.39;100471.56;5078814;28;20431;-63
2022/12/30 05:28:49;;;;;;;15.45;5.20;;;;;;;8.67;98.02;100469.63;5060129;28;20052;-70
2022/12/30 05:31:17;;;;;;;14.93;5.43;;;;;;;9.21;99.40;100476.09;5095844;28;20048;-64
2022/12/30 05:33:45;;;;;;;22.15;5.07;;;;;;;9.22;95.90;100478.56;5097626;28;20044;-63
2022/12/30 05:36:13;;;;;;;21.83;4.63;;;;;;;9.31;98.77;100467.66;5097110;28;20584;-69
2022/12/30 05:38:41;;;;;;;21.52;5.43;;;;;;;9.17;96.00;100466.88;5079368;28;20043;-69
2022/12/30 05:41:09;;;;;;;18.27;3.78;;;;;;;9.36;95.73;100462.03;5096617;28;20059;-64
2022/12/30 05:43:45;;;;;;;23.45;4.22;;;;;;;9.49;95.73;100452.88;5096352;28;20059;-70
2022/12/30 05:46:12;;;;;;;23.48;3.90;;;;;;;9.27;93.68;100436.41;5096469;28;20055;-63
2022/12/30 05:48:40;;;;;;;14.98;3.60;;;;;;;9.64;97.07;100434.06;5070618;28;20044;-70
2022/12/30 05:51:07;;;;;;;17.05;3.90;;;;;;;9.91;94.69;100419.34;5062378;28;20055;-63
2022/12/30 05:53:35;;;;;;;16.95;3.92;;;;;;;9.96;92.69;100422.78;5097154;28;20048;-64
2022/12/30 05:56:03;;;;;;;16.83;3.55;;;;;;;9.64;90.99;100409.31;5081456;28;20495;-70
2022/12/30 05:58:30;;;;;;;17.23;3.38;;;;;;;9.69;92.40;100402.91;5095099;28;20052;-70
2022/12/30 06:00:58;;;;;;;17.67;3.20;;;;;;;9.61;93.23;100393.47;5094845;28;20051;-70
2022/12/30 06:03:28;;;;;;;16.98;3.17;;;;;;;9.60;93.57;100389.09;5095175;28;20060;-71
2022/12/30 06:05:59;;;;;;;19.52;3.83;;;;;;;9.69;92.92;100376.19;5096509;28;20044;-71
2022/12/30 06:08:27;;;;;;;22.43;3.83;;;;;;;9.29;92.24;100374.53;5096326;28;20052;-64
2022/12/30 06:10:54;;;;;;;21.10;3.40;;;;;;;9.75;95.50;100372.19;5095899;28;20434;-71
2022/12/30 06:13:22;;;;;;;22.63;3.65;;;;;;;9.88;94.06;100368.53;5097073;28;20052;-71
2022/12/30 06:15:49;;;;;;;23.80;3.85;;;;;;;9.63;91.98;100369.22;5094502;28;20059;-70
2022/12/30 06:18:17;;;;;;;18.75;4.07;;;;;;;9.65;94.08;100360.66;5096402;28;20047;-70
2022/12/30 06:20:44;;;;;;;23.55;3.80;;;;;;;9.77;94.27;100347.94;5077431;28;20664;-70
2022/12/30 06:23:12;;;;;;;26.60;4.10;;;;;;;9.47;92.61;100347.91;5096739;28;20052;-69
2022/12/30 06:25:40;;;;;;;21.13;3.72;;;;;;;9.44;95.77;100343.06;5093008;28;20055;-70
2022/12/30 06:28:07;;;;;;;26.75;4.60;;;;;;;9.38;94.90;100338.84;5057579;28;20060;-71
2022/12/30 06:30:34;;;;;;;28.00;4.53;;;;;;;9.61;94.44;100348.66;5073858;28;20053;-64
2022/12/30 06:33:02;;;;;;;22.15;3.75;;;;;;;9.59;94.21;100334.44;5062037;28;20070;-64
2022/12/30 06:35:29;;;;;;;25.23;4.93;;;;;;;10.00;94.17;100312.91;5095259;28;20063;-64
2022/12/30 06:37:57;;;;;;;22.90;3.95;;;;;;;10.01;93.31;100306.25;5093235;28;20067;-71
2022/12/30 06:40:24;;;;;;;27.23;4.53;;;;;;;10.38;94.07;100304.91;5094911;28;20043;-71
2022/12/30 06:42:52;;;;;;;24.92;3.75;;;;;;;10.15;90.91;100295.97;5093061;28;20051;-70
2022/12/30 06:45:19;;;;;;;21.00;4.13;;;;;;;10.20;91.16;100287.56;5093928;28;20063;-71
2022/12/30 06:47:46;;;;;;;17.75;3.80;;;;;;;10.27;90.97;100287.88;5090424;28;20064;-71
2022/12/30 06:50:14;;;;;;;21.42;4.15;;;;;;;10.38;91.91;100289.22;5091631;28;20471;-71
2022/12/30 06:52:41;;;;;;;20.45;3.40;;;;;;;10.31;90.50;100285.31;5095796;28;20055;-64
2022/12/30 06:55:09;;;;;;;28.88;3.72;;;;;;;10.16;91.40;100275.59;5094805;28;20048;-64
2022/12/30 06:57:36;;;;;;;16.67;3.88;;;;;;;10.01;90.36;100270.50;5076717;28;20498;-65
2022/12/30 07:00:06;;;;;;;19.42;3.20;;;;;;;10.19;91.16;100263.94;5095726;28;20040;-63
2022/12/30 07:02:34;;;;;;;19.15;4.35;;;;;;;10.19;90.27;100261.19;5076816;28;20047;-64
2022/12/30 07:05:02;;;;;;;22.92;3.95;;;;;;;10.28;90.26;100258.44;5096032;28;20075;-71
2022/12/30 07:07:29;;;;;;;17.98;3.70;;;;;;;10.03;90.02;100246.22;5094649;28;20052;-70
2022/12/30 07:09:57;;;;;;;18.23;4.38;;;;;;;10.17;91.86;100233.16;5073742;28;20047;-71
2022/12/30 07:12:24;;;;;;;19.52;3.25;;;;;;;10.38;90.92;100236.09;5109473;28;20051;-71
2022/12/30 07:14:51;;;;;;;17.55;3.10;;;;;;;10.29;89.93;100229.78;5093545;28;20048;-71
2022/12/30 07:17:19;;;;;;;12.48;3.17;;;;;;;10.27;90.36;100219.06;5110552;28;20060;-65
2022/12/30 07:19:46;;;;;;;13.63;3.30;;;;;;;10.64;90.76;100215.66;5076632;28;20059;-63
2022/12/30 07:22:15;;;;;;;14.43;3.38;;;;;;;10.39;89.02;100213.72;5094951;28;20048;-71
2022/12/30 07:24:43;;;;;;;18.40;3.35;;;;;;;10.43;88.24;100209.19;5076717;28;20067;-71
2022/12/30 07:27:11;;;;;;;13.15;3.22;;;;;;;10.26;88.95;100211.16;5095877;28;20044;-71
2022/12/30 07:29:38;;;;;;;14.07;2.97;;;;;;;10.40;89.42;100203.53;5092716;28;20028;-70
2022/12/30 07:32:06;;;;;;;14.77;3.33;;;;;;;10.47;89.03;100204.69;5091018;28;20059;-69
2022/12/30 07:34:37;;;;;;;15.70;3.65;;;;;;;10.70;89.33;100195.09;5094329;28;20052;-70
2022/12/30 07:37:10;;;;;;;14.88;3.25;;;;;;;10.49;87.71;100191.41;5093609;28;20063;-70
2022/12/30 07:39:38;;;;;;;14.48;2.75;;;;;;;11.01;89.42;100184.66;5085887;28;20064;-70
2022/12/30 07:42:06;;;;;;;12.38;2.42;;;;;;;10.71;86.78;100179.34;5088029;28;20526;-70
2022/12/30 07:44:33;;;;;;;14.90;3.17;;;;;;;10.54;88.31;100174.69;5042794;28;20056;-70
2022/12/30 07:47:00;;;;;;;14.65;2.67;;;;;;;10.87;90.21;100172.19;5087926;28;20748;-70
2022/12/30 07:49:28;;;;;;;14.82;2.90;;;;;;;10.96;89.37;100187.56;5089283;28;20053;-70
2022/12/30 07:51:55;;;;;;;14.00;2.60;;;;;;;10.77;85.43;100183.56;5085559;28;20060;-69
2022/12/30 07:54:22;;;;;;;19.17;2.92;;;;;;;10.80;86.68;100191.16;5084003;28;20056;-72
2022/12/30 07:56:49;;;;;;;12.57;3.08;;;;;;;11.16;88.95;100194.31;5076075;28;20533;-70
2022/12/30 07:59:17;;;;;;;15.95;3.03;;;;;;;11.24;84.86;100186.00;5091856;28;20044;-69
2022/12/30 08:01:44;;;;;;;13.07;2.65;;;;;;;11.31;85.59;100182.75;5094044;28;20048;-71
2022/12/30 08:04:12;;;;;;;16.10;2.90;;;;;;;11.53;85.85;100187.16;5093125;28;20055;-70
2022/12/30 08:06:59;;;;;;;13.68;2.45;;;;;;;11.32;83.43;100174.13;5094024;28;20052;-72
2022/12/30 08:09:26;;;;;;;11.25;2.13;;;;;;;11.58;83.39;100171.25;5094578;28;20086;-69
2022/12/30 08:11:53;;;;;;;10.38;2.45;;;;;;;11.12;81.97;100163.84;5094105;28;20592;-69
2022/12/30 08:14:21;;;;;;;11.23;2.28;;;;;;;11.44;82.75;100150.56;5088805;28;20491;-70
2022/12/30 08:16:48;;;;;;;13.52;2.70;;;;;;;11.57;82.43;100141.25;5086331;28;20044;-69
2022/12/30 08:19:16;;;;;;;13.48;2.60;;;;;;;11.32;81.52;100132.78;5085102;28;20048;-70
2022/12/30 08:21:43;;;;;;;17.38;2.92;;;;;;;11.61;83.65;100140.22;5054580;28;20063;-69
2022/12/30 08:24:11;;;;;;;12.27;2.58;;;;;;;11.73;81.31;100131.28;5074493;28;20375;-72
2022/12/30 08:26:38;;;;;;;17.92;2.53;;;;;;;11.18;81.94;100147.94;5088049;28;20055;-72
2022/12/30 08:29:05;;;;;;;13.45;3.13;;;;;;;11.60;83.82;100137.81;5053411;28;20413;-69
2022/12/30 08:31:36;;;;;;;14.57;2.58;;;;;;;11.41;84.63;100124.47;5080426;28;20043;-71
2022/12/30 08:34:04;;;;;;;17.52;3.20;;;;;;;11.40;83.79;100131.13;5088564;28;20048;-72
2022/12/30 08:36:32;;;;;;;12.10;2.85;;;;;;;10.62;86.04;100109.72;5058320;28;20036;-71
2022/12/30 08:39:02;;;;;;;13.98;2.80;;;;;;;10.77;86.24;100104.50;5076027;28;20044;-70
2022/12/30 08:41:34;;;;;;;;;;;;;;;11.27;87.21;100099.06;5087632;28;20074;-69
2022/12/30 08:44:03;;;;;;;15.45;3.10;;;;;;;11.30;85.79;100099.22;5101318;28;19919;-69
2022/12/30 08:46:32;;;;;;;11.55;3.33;;;;;;;11.42;84.53;100084.69;5066544;28;20573;-71
2022/12/30 08:49:00;;;;;;;11.50;2.78;;;;;;;11.81;84.41;100077.97;5053714;28;20075;-70
2022/12/30 08:51:27;;;;;;;8.77;2.47;;;;;;;11.90;83.75;100076.75;5080048;28;20043;-70
2022/12/30 08:53:55;;;;;;;11.63;2.33;;;;;;;12.08;82.87;100066.38;5094319;28;20052;-72
2022/12/30 08:56:32;;;;;;;9.73;2.15;;;;;;;11.46;81.79;100063.59;5098305;28;20059;-71
2022/12/30 08:58:59;;;;;;;10.90;2.40;;;;;;;11.77;83.89;100050.25;5094303;28;20048;-71
2022/12/30 09:01:30;;;;;;;7.78;2.25;;;;;;;11.20;84.31;100052.75;5091320;28;20479;-71
2022/12/30 09:03:59;;;;;;;13.82;2.85;;;;;;;11.08;86.90;100049.91;5075345;28;20458;-71
2022/12/30 09:06:28;;;;;;;9.93;2.78;;;;;;;10.91;88.04;100047.22;5086143;28;21861;-69
2022/12/30 09:08:57;;;;;;;9.88;2.22;;;;;;;11.06;88.43;100043.09;5075902;28;20059;-70
2022/12/30 09:11:31;;;;;;;7.40;1.95;;;;;;;10.68;89.51;100023.84;5093793;28;20044;-70
2022/12/30 09:14:01;;;;;;;8.32;1.75;;;;;;;10.23;91.43;100025.47;5079318;28;20055;-70
2022/12/30 09:16:29;;;;;;;9.43;2.22;;;;;;;10.58;94.23;100012.38;5062101;28;20056;-71
2022/12/30 09:18:57;;;;;;;12.35;3.10;;;;;;;11.08;92.38;100005.00;5096288;28;20047;-70
2022/12/30 09:21:25;;;;;;;8.27;2.47;;;;;;;10.54;91.12;99997.66;5090668;28;20420;-71
2022/12/30 09:23:53;;;;;;;9.00;2.45;;;;;;;10.77;91.05;99988.81;5237565;22;20058;-73
2022/12/30 09:26:23;;;;;;;12.75;2.20;;;;;;;11.07;90.86;100000.63;4994642;28;20073;-73
2022/12/30 09:28:51;;;;;;;8.85;2.55;;;;;;;11.00;90.36;99998.38;4998018;28;20061;-67
2022/12/30 09:31:20;;;;;;;9.02;2.22;;;;;;;11.19;88.85;100009.75;4997392;28;20061;-67
2022/12/30 09:33:48;;;;;;;9.32;2.38;;;;;;;11.15;90.19;100011.59;4996734;28;20126;-67
2022/12/30 09:36:15;;;;;;;9.23;2.45;;;;;;;11.29;88.42;99990.09;4983032;28;20046;-67
2022/12/30 09:38:43;;;;;;;10.45;2.70;;;;;;;11.29;87.96;99989.28;5007948;28;20057;-66
2022/12/30 09:41:14;;;;;;;6.32;2.20;;;;;;;11.09;91.34;99999.13;4997693;28;20057;-66
2022/12/30 09:44:01;;;;;;;12.50;2.60;;;;;;;11.61;89.95;99983.00;5005856;28;20133;-67
2022/12/30 09:46:43;;;;;;;6.78;2.22;;;;;;;11.81;86.91;99964.84;4988193;28;20061;-66
2022/12/30 09:49:23;;;;;;;6.45;2.10;;;;;;;11.62;86.33;99953.47;4979953;28;20055;-68
2022/12/30 09:51:55;;;;;;;6.38;2.42;;;;;;;11.46;87.56;99952.47;5012563;28;20042;-67
2022/12/30 09:54:24;;;;;;;7.78;2.45;;;;;;;11.78;87.57;99943.44;4978250;28;20061;-68
2022/12/30 09:56:57;;;;;;;6.93;2.27;;;;;;;11.51;87.25;99950.31;4977655;28;20051;-68
2022/12/30 09:59:32;;;;;;;7.05;2.35;;;;;;;11.77;87.77;99955.66;4995766;28;20389;-67
2022/12/30 10:02:14;;;;;;;8.13;2.10;;;;;;;11.51;88.11;99930.19;5000005;28;20397;-67
2022/12/30 10:04:42;;;;;;;11.70;3.05;;;;;;;11.32;90.39;99931.50;4976235;28;20046;-66
2022/12/30 10:08:05;;;;;;;5.25;1.77;;;;;;;11.98;89.13;99929.59;4999241;28;20050;-68
2022/12/30 10:10:39;;;;;;;4.20;1.98;;;;;;;11.45;89.18;99923.28;4980567;28;20684;-67
2022/12/30 10:13:14;;;;;;;6.28;1.90;;;;;;;11.45;91.85;99918.59;5006426;28;20054;-69
2022/12/30 10:15:53;;;;;;;5.63;2.35;;;;;;;11.08;92.17;99892.81;5009099;28;20504;-67
2022/12/30 10:18:36;;;;;;;5.70;2.10;;;;;;;11.38;91.90;99881.69;4997125;28;20054;-67
2022/12/30 10:21:20;;;;;;;6.22;1.77;;;;;;;11.49;91.31;99871.84;5003400;28;20053;-65
2022/12/30 10:23:48;;;;;;;5.65;1.88;;;;;;;11.68;89.64;99850.09;4999832;28;20049;-65
2022/12/30 10:26:19;;;;;;;6.03;2.65;;;;;;;11.81;89.74;99849.78;5002593;28;20157;-66
2022/12/30 10:28:49;;;;;;;4.28;1.60;;;;;;;11.74;91.06;99843.19;4982188;28;20401;-65
2022/12/30 10:31:22;;;;;;;5.20;1.98;;;;;;;11.79;89.82;99860.34;4989386;28;20153;-64
2022/12/30 10:33:52;;;;;;;4.85;1.60;;;;;;;11.91;90.72;99842.97;4987969;28;20539;-65
2022/12/30 10:36:39;;;;;;;4.45;1.90;;;;;;;12.21;90.25;99830.59;4980539;28;20062;-67
2022/12/30 10:39:16;;;;;;;3.78;1.50;;;;;;;11.99;89.76;99842.91;4994465;28;20035;-65
2022/12/30 10:42:04;;;;;;;3.85;1.40;;;;;;;12.05;91.05;99837.94;5001958;28;20057;-65
2022/12/30 10:44:37;;;;;;;4.05;1.60;;;;;;;12.16;90.99;99830.81;5000525;28;20068;-70
2022/12/30 10:47:30;;;;;;;2.72;1.20;;;;;;;11.83;92.11;99822.66;4990762;28;20409;-71
2022/12/30 10:50:06;;;;;;;5.85;0.90;;;;;;;11.78;93.99;99806.31;4995515;28;20038;-65
2022/12/30 10:52:34;;;;;;;7.07;1.60;;;;;;;12.03;94.60;99818.19;5009417;28;20150;-66
2022/12/30 10:55:32;;;;;;;4.15;2.33;;;;;;;11.97;93.27;99802.97;4999011;28;20057;-66
2022/12/30 10:58:02;;;;;;;3.55;1.35;;;;;;;12.42;93.13;99804.47;4985715;28;20076;-65
2022/12/30 11:00:32;;;;;;;4.28;1.83;;;;;;;12.45;92.55;99789.94;5011762;28;20110;-66
2022/12/30 11:03:03;;;;;;;6.68;2.92;;;;;;;12.47;91.45;99775.78;4983196;28;20053;-66
2022/12/30 11:05:34;;;;;;;3.90;1.52;;;;;;;12.46;92.23;99760.38;4984140;28;20706;-63
2022/12/30 11:08:04;;;;;;;2.95;1.20;;;;;;;12.51;91.86;99778.66;4999418;28;20050;-65
2022/12/30 11:10:31;;;;;;;3.78;1.75;;;;;;;12.56;92.61;99784.75;5003626;28;20053;-66
2022/12/30 11:15:58;;;;;;;23.30;4.90;;;;;;;12.90;90.14;99758.50;4984789;28;20050;-65
2022/12/30 11:18:28;;;;;;;12.75;3.42;;;;;;;12.85;90.08;99758.75;4994084;28;20054;-67
2022/12/30 11:20:57;;;;;;;;;;;;;;;13.01;91.25;99770.66;4997837;28;20054;-67
2022/12/30 11:23:37;;;;;;;32.42;8.13;;;;;;;13.02;90.49;99773.09;4990289;28;19929;-66
2022/12/30 11:26:19;;;;;;;16.13;8.27;;;;;;;12.93;92.65;99747.56;4984839;28;20054;-66
2022/12/30 11:28:57;;;;;;;14.23;4.43;;;;;;;13.04;91.97;99753.41;4980935;28;20050;-64
2022/12/30 11:31:34;;;;;;;45.45;8.77;;;;;;;13.28;93.96;99739.44;4969504;28;20064;-65
2022/12/30 11:34:03;;;;;;;24.90;5.50;;;;;;;13.62;93.11;99749.81;4991396;28;20158;-65
2022/12/30 11:36:35;;;;;;;11.27;2.85;;;;;;;13.65;91.05;99762.91;4995089;28;20050;-65
2022/12/30 11:39:06;;;;;;;25.42;4.93;;;;;;;13.60;91.86;99759.66;4992033;28;20488;-66
2022/12/30 11:41:45;;;;;;;28.27;5.68;;;;;;;13.58;91.09;99741.41;4995683;28;20061;-66
2022/12/30 11:44:15;;;;;;;13.63;3.25;;;;;;;13.41;90.46;99752.84;4977614;28;20065;-67
2022/12/30 11:46:50;;;;;;;19.83;4.53;;;;;;;13.54;91.37;99735.00;4976656;28;20432;-66
2022/12/30 11:49:21;;;;;;;10.57;2.97;;;;;;;13.24;90.77;99731.06;4993506;28;20409;-65
2022/12/30 11:51:50;;;;;;;25.42;7.53;;;;;;;13.41;91.76;99733.47;4993582;28;20418;-66
2022/12/30 11:54:20;;;;;;;29.70;8.02;;;;;;;13.51;92.65;99748.75;4981828;28;20050;-64
2022/12/30 11:56:54;;;;;;;17.20;4.65;;;;;;;13.76;91.68;99752.94;4991725;28;20053;-64
2022/12/30 11:59:32;;;;;;;15.15;7.60;;;;;;;13.91;90.83;99754.09;4985239;28;20449;-64
2022/12/30 12:02:00;;;;;;;14.18;4.45;;;;;;;13.71;89.72;99728.31;4990048;28;20048;-64
2022/12/30 12:04:40;;;;;;;17.98;5.88;;;;;;;13.70;91.49;99734.19;4975043;28;20065;-64
2022/12/30 12:07:16;;;;;;;25.15;7.88;;;;;;;13.76;91.02;99716.13;4974403;28;20045;-64
2022/12/30 12:09:52;;;;;;;29.48;13.00;;;;;;;13.74;90.23;99737.88;4989224;28;20046;-64
2022/12/30 12:12:22;;;;;;;32.30;17.42;;;;;;;13.90;91.64;99713.72;4987855;28;20050;-63
2022/12/30 12:15:02;;;;;;;17.58;9.77;;;;;;;13.91;90.97;99724.44;4975196;28;20058;-64
2022/12/30 12:17:44;;;;;;;23.40;6.55;;;;;;;14.09;90.32;99722.06;4992542;28;20061;-64
2022/12/30 12:20:11;;;;;;;19.17;4.63;;;;;;;13.93;91.80;99716.56;4977157;28;20515;-63
2022/12/30 12:23:17;;;;;;;20.60;5.45;;;;;;;14.10;90.73;99720.94;4999581;28;20050;-64
2022/12/30 12:26:04;;;;;;;6.35;2.55;;;;;;;14.13;91.31;99714.66;4964454;28;20049;-64
2022/12/30 12:28:33;;;;;;;13.93;3.60;;;;;;;14.30;90.66;99722.59;4994208;28;20051;-64
2022/12/30 12:31:06;;;;;;;21.70;5.28;;;;;;;14.38;90.35;99716.06;4963631;28;20050;-65
2022/12/30 12:33:40;;;;;;;24.33;6.20;;;;;;;14.48;90.53;99704.41;4996810;28;20117;-65
2022/12/30 12:36:27;;;;;;;10.45;2.25;;;;;;;14.38;90.76;99702.97;4990487;28;20042;-63
2022/12/30 12:39:26;;;;;;;25.65;5.43;;;;;;;14.64;90.79;99703.13;4994875;28;20125;-62